createdAt,value
2022-10-13T00:01:20.870Z,111.78
2022-10-13T00:03:48.907Z,108.72
2022-10-13T00:06:25.490Z,112.85
2022-10-13T00:11:25.211Z,104.75
2022-10-13T00:13:55.512Z,117.53
2022-10-13T00:16:24.125Z,116.45
2022-10-13T00:18:54.197Z,110.20
2022-10-13T00:21:24.251Z,112.68
2022-10-13T00:23:53.505Z,109.13
2022-10-13T00:26:23.221Z,107.93
2022-10-13T00:28:52.834Z,100.63
2022-10-13T00:31:24.163Z,103.60
2022-10-13T00:33:53.229Z,96.20
2022-10-13T00:36:23.485Z,100.03
2022-10-13T00:38:54.078Z,92.22
2022-10-13T00:41:22.107Z,93.43
2022-10-13T00:44:26.701Z,92.32
2022-10-13T00:46:54.425Z,83.55
2022-10-13T00:49:22.413Z,80.47
2022-10-13T00:51:51.152Z,85.65
2022-10-13T00:54:25.700Z,94.35
2022-10-13T00:56:54.915Z,90.38
2022-10-13T00:59:29.276Z,82.75
2022-10-13T01:01:59.612Z,79.97
2022-10-13T01:04:32.413Z,141.20
2022-10-13T01:07:01.553Z,77.82
2022-10-13T01:09:36.265Z,62.17
2022-10-13T01:12:38.270Z,67.00
2022-10-13T01:15:26.822Z,63.95
2022-10-13T01:18:09.539Z,57.53
2022-10-13T01:21:04.292Z,66.43
2022-10-13T01:24:06.615Z,63.00
2022-10-13T01:26:53.643Z,64.68
2022-10-13T01:29:40.456Z,59.88
2022-10-13T01:32:23.351Z,66.93
2022-10-13T01:35:18.338Z,57.33
2022-10-13T01:37:46.291Z,58.55
2022-10-13T01:40:29.165Z,57.75
2022-10-13T01:43:20.475Z,65.65
2022-10-13T01:45:54.530Z,69.53
2022-10-13T01:48:23.439Z,55.80
2022-10-13T01:50:54.471Z,38.13
2022-10-13T01:53:23.438Z,45.42
2022-10-13T01:56:00.239Z,39.35
2022-10-13T01:58:30.880Z,31.58
2022-10-13T02:01:23.452Z,32.13
2022-10-13T02:04:10.031Z,36.25
2022-10-13T02:06:53.669Z,43.50
2022-10-13T02:09:35.495Z,33.40
2022-10-13T02:14:59.802Z,35.47
2022-10-13T02:17:29.098Z,36.35
2022-10-13T02:19:58.626Z,40.10
2022-10-13T02:22:37.191Z,45.23
2022-10-13T02:25:06.041Z,43.50
2022-10-13T02:27:34.264Z,36.20
2022-10-13T02:30:02.231Z,39.53
2022-10-13T02:32:32.618Z,33.83
2022-10-13T02:35:00.529Z,38.17
2022-10-13T02:37:28.376Z,37.05
2022-10-13T02:39:56.620Z,35.85
2022-10-13T02:42:24.438Z,38.67
2022-10-13T02:44:56.716Z,36.15
2022-10-13T02:47:24.526Z,33.05
2022-10-13T03:04:28.807Z,39.65
2022-10-13T03:06:58.660Z,51.28
2022-10-13T03:09:26.808Z,42.45
2022-10-13T03:11:55.060Z,35.67
2022-10-13T03:14:42.659Z,31.90
2022-10-13T03:17:13.559Z,33.28
2022-10-13T03:19:42.090Z,36.00
2022-10-13T03:22:15.671Z,34.00
2022-10-13T03:24:44.031Z,31.02
2022-10-13T03:27:12.158Z,30.88
2022-10-13T03:29:41.110Z,30.60
2022-10-13T03:32:10.064Z,29.67
2022-10-13T03:34:38.039Z,30.70
2022-10-13T03:37:06.688Z,28.27
2022-10-13T03:39:40.795Z,29.23
2022-10-13T03:42:10.470Z,67.35
2022-10-13T03:44:39.486Z,117.88
2022-10-13T03:47:08.023Z,105.93
2022-10-13T03:49:37.727Z,95.25
2022-10-13T03:52:06.195Z,100.30
2022-10-13T03:54:34.566Z,69.55
2022-10-13T03:57:04.217Z,68.93
2022-10-13T03:59:36.565Z,54.53
2022-10-13T04:02:05.477Z,42.13
2022-10-13T04:04:34.530Z,53.50
2022-10-13T04:07:02.742Z,55.80
2022-10-13T04:09:31.232Z,53.75
2022-10-13T04:11:59.370Z,46.78
2022-10-13T04:14:30.211Z,43.03
2022-10-13T04:17:03.689Z,49.22
2022-10-13T04:19:31.771Z,44.72
2022-10-13T04:22:04.978Z,44.03
2022-10-13T04:24:33.079Z,40.70
2022-10-13T04:27:01.159Z,40.55
2022-10-13T04:29:29.517Z,40.72
2022-10-13T04:32:00.444Z,37.55
2022-10-13T04:34:28.534Z,38.28
2022-10-13T04:36:57.784Z,37.55
2022-10-13T04:39:25.826Z,38.78
2022-10-13T04:41:54.042Z,31.42
2022-10-13T04:44:22.478Z,35.92
2022-10-13T04:46:50.539Z,38.72
2022-10-13T04:49:21.244Z,31.63
2022-10-13T04:51:49.725Z,32.85
2022-10-13T04:54:17.917Z,34.75
2022-10-13T04:56:47.140Z,34.38
2022-10-13T04:59:15.266Z,30.30
2022-10-13T05:01:43.391Z,31.25
2022-10-13T05:04:14.722Z,36.65
2022-10-13T05:07:12.635Z,41.67
2022-10-13T05:09:32.236Z,74.50
2022-10-13T05:12:00.409Z,58.55
2022-10-13T05:14:28.564Z,64.90
2022-10-13T05:16:56.876Z,46.72
2022-10-13T05:19:25.187Z,39.28
2022-10-13T05:21:53.657Z,42.08
2022-10-13T05:24:36.706Z,43.47
2022-10-13T05:27:15.053Z,35.28
2022-10-13T05:29:43.273Z,35.40
2022-10-13T05:32:11.908Z,36.05
2022-10-13T05:34:39.932Z,37.33
2022-10-13T05:37:08.107Z,39.63
2022-10-13T05:39:36.393Z,44.15
2022-10-13T05:42:04.722Z,34.63
2022-10-13T05:44:32.993Z,42.90
2022-10-13T05:47:07.469Z,42.50
2022-10-13T05:49:40.067Z,39.80
2022-10-13T05:52:11.820Z,40.42
2022-10-13T05:54:44.944Z,39.30
2022-10-13T05:57:37.327Z,45.28
2022-10-13T06:00:17.218Z,36.63
2022-10-13T06:02:52.772Z,40.55
2022-10-13T06:05:24.027Z,41.47
2022-10-13T06:07:56.600Z,39.47
2022-10-13T06:10:25.829Z,44.60
2022-10-13T06:12:53.958Z,41.47
2022-10-13T06:15:27.076Z,38.63
2022-10-13T06:17:57.936Z,42.22
2022-10-13T06:20:27.798Z,41.72
2022-10-13T06:22:56.491Z,37.63
2022-10-13T06:25:25.191Z,38.38
2022-10-13T06:27:53.339Z,37.58
2022-10-13T06:30:21.373Z,37.13
2022-10-13T06:32:49.684Z,38.53
2022-10-13T06:35:18.229Z,36.58
2022-10-13T06:37:49.016Z,35.83
2022-10-13T06:40:17.541Z,40.35
2022-10-13T06:42:51.277Z,43.35
2022-10-13T06:45:22.651Z,38.45
2022-10-13T06:47:54.760Z,44.22
2022-10-13T06:50:23.910Z,45.60
2022-10-13T06:52:52.724Z,39.45
2022-10-13T06:55:20.964Z,41.13
2022-10-13T06:57:50.255Z,35.20
2022-10-13T07:00:18.557Z,37.03
2022-10-13T07:02:51.647Z,38.53
2022-10-13T07:05:20.049Z,39.70
2022-10-13T07:07:48.501Z,46.17
2022-10-13T07:10:16.697Z,36.60
2022-10-13T07:12:45.402Z,39.92
2022-10-13T07:15:13.580Z,40.88
2022-10-13T07:17:41.723Z,41.05
2022-10-13T07:20:10.650Z,51.65
2022-10-13T07:22:38.798Z,55.03
2022-10-13T07:25:07.392Z,65.95
2022-10-13T07:27:35.803Z,59.42
2022-10-13T07:30:04.942Z,54.72
2022-10-13T07:32:34.164Z,46.33
2022-10-13T07:35:04.726Z,36.95
2022-10-13T07:37:32.808Z,42.17
2022-10-13T07:40:01.266Z,39.75
2022-10-13T07:42:31.493Z,46.53
2022-10-13T07:45:00.031Z,45.47
2022-10-13T07:47:31.497Z,45.65
2022-10-13T07:49:59.882Z,40.92
2022-10-13T07:52:28.320Z,38.90
2022-10-13T07:55:12.994Z,45.90
2022-10-13T07:57:41.470Z,30.35
2022-10-13T08:00:10.756Z,31.40
2022-10-13T08:02:42.445Z,41.35
2022-10-13T08:05:10.588Z,31.67
2022-10-13T08:07:39.613Z,30.52
2022-10-13T08:10:11.034Z,36.47
2022-10-13T08:12:40.201Z,30.45
2022-10-13T08:15:10.582Z,35.05
2022-10-13T08:17:38.945Z,27.35
2022-10-13T08:20:07.734Z,25.73
2022-10-13T08:22:36.165Z,28.67
2022-10-13T08:25:04.562Z,21.33
2022-10-13T08:27:50.240Z,30.40
2022-10-13T08:30:20.556Z,28.20
2022-10-13T08:32:49.148Z,23.92
2022-10-13T08:35:17.600Z,40.42
2022-10-13T08:37:48.914Z,54.33
2022-10-13T08:40:23.296Z,55.45
2022-10-13T08:42:53.635Z,74.70
2022-10-13T08:45:47.429Z,54.83
2022-10-13T08:48:26.018Z,47.13
2022-10-13T08:51:02.329Z,51.38
2022-10-13T08:53:38.177Z,42.65
2022-10-13T08:56:26.453Z,26.25
2022-10-13T08:58:56.900Z,21.75
2022-10-13T09:01:32.893Z,21.92
2022-10-13T09:04:41.217Z,21.02
2022-10-13T09:07:09.947Z,22.60
2022-10-13T09:09:41.564Z,21.42
2022-10-13T09:12:13.936Z,23.33
2022-10-13T09:14:42.326Z,21.80
2022-10-13T09:17:21.211Z,25.45
2022-10-13T09:20:24.372Z,24.65
2022-10-13T09:23:18.349Z,20.80
2022-10-13T09:25:50.261Z,21.63
2022-10-13T09:28:37.997Z,19.42
2022-10-13T09:31:26.363Z,26.73
2022-10-13T09:34:03.962Z,15.57
2022-10-13T09:36:33.529Z,13.27
2022-10-13T09:39:11.960Z,18.30
2022-10-13T09:41:45.517Z,31.63
2022-10-13T09:44:32.309Z,22.50
2022-10-13T09:47:04.259Z,23.17
2022-10-13T09:49:55.386Z,21.02
2022-10-13T09:52:28.203Z,22.45
2022-10-13T09:55:01.347Z,25.35
2022-10-13T09:57:30.276Z,40.50
2022-10-13T10:00:27.845Z,110.82
2022-10-13T10:03:17.186Z,26.75
2022-10-13T10:06:03.163Z,23.73
2022-10-13T10:09:02.807Z,24.80
2022-10-13T10:11:58.242Z,16.92
2022-10-13T10:14:28.459Z,24.30
2022-10-13T10:17:22.221Z,19.43
2022-10-13T10:20:28.586Z,22.10
2022-10-13T10:23:20.562Z,15.88
2022-10-13T10:25:58.384Z,19.57
2022-10-13T10:28:38.411Z,20.65
2022-10-13T10:31:27.021Z,18.80
2022-10-13T10:34:15.400Z,15.40
2022-10-13T10:37:08.419Z,20.17
2022-10-13T10:39:45.520Z,29.42
2022-10-13T10:42:54.403Z,19.20
2022-10-13T10:45:36.070Z,17.75
2022-10-13T10:48:24.175Z,20.08
2022-10-13T10:50:53.577Z,16.13
2022-10-13T10:53:36.586Z,16.20
2022-10-13T10:56:30.819Z,14.88
2022-10-13T10:59:11.715Z,12.65
2022-10-13T11:02:16.462Z,13.55
2022-10-13T11:04:53.358Z,14.45
2022-10-13T11:07:24.194Z,16.13
2022-10-13T11:09:52.675Z,25.02
2022-10-13T11:12:21.484Z,13.80
2022-10-13T11:14:55.635Z,13.05
2022-10-13T11:17:32.246Z,12.07
2022-10-13T11:20:01.120Z,11.68
2022-10-13T11:22:32.214Z,15.13
2022-10-13T11:25:34.947Z,14.02
2022-10-13T11:28:21.408Z,7.72
2022-10-13T11:30:53.221Z,9.05
2022-10-13T11:33:51.193Z,15.50
2022-10-13T11:36:31.008Z,9.52
2022-10-13T11:42:11.874Z,4.95
2022-10-13T11:45:00.301Z,23.92
2022-10-13T11:47:56.011Z,32.25
2022-10-13T11:50:52.677Z,114.85
2022-10-13T11:53:26.499Z,122.65
2022-10-13T11:56:01.747Z,138.30
2022-10-13T11:58:31.820Z,205.98
2022-10-13T12:01:06.709Z,373.77
2022-10-13T12:07:08.321Z,15.15
2022-10-13T12:09:51.845Z,18.27
2022-10-13T12:12:24.527Z,11.20
2022-10-13T12:14:55.178Z,9.48
2022-10-13T12:17:27.649Z,11.50
2022-10-13T12:19:58.804Z,22.05
2022-10-13T12:22:29.856Z,10.15
2022-10-13T12:25:07.566Z,8.02
2022-10-13T12:27:51.198Z,11.52
2022-10-13T12:30:21.564Z,8.50
2022-10-13T12:32:52.364Z,8.93
2022-10-13T12:35:32.657Z,9.95
2022-10-13T12:38:17.605Z,11.75
2022-10-13T12:40:51.575Z,14.13
2022-10-13T12:43:26.021Z,9.57
2022-10-13T12:45:54.355Z,10.88
2022-10-13T12:48:34.456Z,10.60
2022-10-13T12:51:15.580Z,8.85
2022-10-13T12:53:46.345Z,6.75
2022-10-13T12:56:31.379Z,9.27
2022-10-13T12:59:00.150Z,12.45
2022-10-13T13:01:35.669Z,11.95
2022-10-13T13:04:23.094Z,21.45
2022-10-13T13:07:03.548Z,9.07
2022-10-13T13:09:38.242Z,7.30
2022-10-13T13:12:21.797Z,9.80
2022-10-13T13:14:55.233Z,8.00
2022-10-13T13:20:30.228Z,8.73
2022-10-13T13:22:58.635Z,9.02
2022-10-13T13:25:27.122Z,9.35
2022-10-13T13:27:55.226Z,9.57
2022-10-13T13:30:24.698Z,9.15
2022-10-13T13:32:52.733Z,12.65
2022-10-13T13:35:21.232Z,8.98
2022-10-13T13:37:56.296Z,7.53
2022-10-13T13:40:28.049Z,13.65
2022-10-13T13:42:57.798Z,7.95
2022-10-13T13:45:34.684Z,8.80
2022-10-13T13:48:04.922Z,37.90
2022-10-13T13:50:38.243Z,45.30
2022-10-13T13:53:07.610Z,11.35
2022-10-13T13:55:40.346Z,11.88
2022-10-13T13:58:12.033Z,10.65
2022-10-13T14:00:41.249Z,13.15
2022-10-13T14:03:10.239Z,11.30
2022-10-13T14:05:41.938Z,8.00
2022-10-13T14:08:11.262Z,24.67
2022-10-13T14:10:42.002Z,10.35
2022-10-13T14:13:11.527Z,8.43
2022-10-13T14:15:40.628Z,7.30
2022-10-13T14:18:10.000Z,10.23
2022-10-13T14:20:42.840Z,11.13
2022-10-13T14:23:12.162Z,6.28
2022-10-13T14:25:44.986Z,7.70
2022-10-13T14:28:18.007Z,7.97
2022-10-13T14:30:47.746Z,11.40
2022-10-13T14:33:19.928Z,9.52
2022-10-13T14:35:51.365Z,13.43
2022-10-13T14:38:21.208Z,18.77
2022-10-13T14:40:50.896Z,24.20
2022-10-13T14:43:20.039Z,22.02
2022-10-13T14:45:49.091Z,13.98
2022-10-13T14:48:19.495Z,15.70
2022-10-13T14:50:53.455Z,9.77
2022-10-13T14:53:21.409Z,13.07
2022-10-13T14:55:49.358Z,10.65
2022-10-13T14:58:17.641Z,13.05
2022-10-13T15:00:45.646Z,14.30
2022-10-13T15:03:13.628Z,14.82
2022-10-13T15:05:42.097Z,13.98
2022-10-13T15:08:10.134Z,13.18
2022-10-13T15:14:11.845Z,14.93
2022-10-13T15:16:40.203Z,14.35
2022-10-13T15:19:08.136Z,10.38
2022-10-13T15:21:36.210Z,15.13
2022-10-13T15:24:04.804Z,25.73
2022-10-13T15:26:33.190Z,111.45
2022-10-13T15:29:03.695Z,131.88
2022-10-13T15:31:32.051Z,124.00
2022-10-13T15:34:02.165Z,203.90
2022-10-13T15:36:30.278Z,81.40
2022-10-13T15:38:59.053Z,42.03
2022-10-13T15:41:27.256Z,36.08
2022-10-13T15:43:55.211Z,25.83
2022-10-13T15:46:24.616Z,52.85
2022-10-13T15:48:53.663Z,56.05
2022-10-13T15:51:24.620Z,45.33
2022-10-13T15:53:53.759Z,43.08
2022-10-13T15:56:21.866Z,76.28
2022-10-13T15:58:50.733Z,73.93
2022-10-13T16:01:19.528Z,57.40
2022-10-13T16:03:47.557Z,54.03
2022-10-13T16:06:15.917Z,56.85
2022-10-13T16:08:44.578Z,45.38
2022-10-13T16:11:21.454Z,32.65
2022-10-13T16:14:10.286Z,25.35
2022-10-13T16:16:38.717Z,19.73
2022-10-13T16:19:07.071Z,17.40
2022-10-13T16:21:35.493Z,21.30
2022-10-13T16:24:09.057Z,21.73
2022-10-13T16:26:37.603Z,25.95
2022-10-13T16:29:06.671Z,21.85
2022-10-13T16:31:37.812Z,19.73
2022-10-13T16:34:06.667Z,16.95
2022-10-13T16:36:35.173Z,17.50
2022-10-13T16:39:03.340Z,12.55
2022-10-13T16:41:31.825Z,14.68
2022-10-13T16:43:59.897Z,17.80
2022-10-13T16:46:28.332Z,17.33
2022-10-13T16:49:03.033Z,21.10
2022-10-13T16:51:31.451Z,31.75
2022-10-13T16:54:04.152Z,37.78
2022-10-13T16:56:33.221Z,35.30
2022-10-13T16:59:03.454Z,35.40
2022-10-13T17:01:32.454Z,38.58
2022-10-13T17:04:01.325Z,38.58
2022-10-13T17:06:29.802Z,36.63
2022-10-13T17:08:59.495Z,35.03
2022-10-13T17:11:30.548Z,49.67
2022-10-13T17:14:00.293Z,36.42
2022-10-13T17:16:33.021Z,27.35
2022-10-13T17:19:01.203Z,28.52
2022-10-13T17:21:37.144Z,24.55
2022-10-13T17:24:07.532Z,28.23
2022-10-13T17:26:35.952Z,24.40
2022-10-13T17:29:04.363Z,19.90
2022-10-13T17:31:32.187Z,19.40
2022-10-13T17:34:00.688Z,20.90
2022-10-13T17:36:32.068Z,18.55
2022-10-13T17:39:05.712Z,22.63
2022-10-13T17:41:35.123Z,20.75
2022-10-13T17:44:03.680Z,24.58
2022-10-13T17:46:37.821Z,25.88
2022-10-13T17:49:10.405Z,22.55
2022-10-13T17:51:39.195Z,22.48
2022-10-13T17:54:12.937Z,22.73
2022-10-13T17:56:43.953Z,23.33
2022-10-13T17:59:12.453Z,25.13
2022-10-13T18:01:42.388Z,29.30
2022-10-13T18:04:13.399Z,23.95
2022-10-13T18:06:46.069Z,23.38
2022-10-13T18:09:20.930Z,21.92
2022-10-13T18:11:51.302Z,22.45
2022-10-13T18:16:50.804Z,26.35
2022-10-13T18:19:18.641Z,31.92
2022-10-13T18:21:47.220Z,26.17
2022-10-13T18:24:15.191Z,26.25
2022-10-13T18:26:42.997Z,28.27
2022-10-13T18:29:12.690Z,39.63
2022-10-13T18:31:41.745Z,32.72
2022-10-13T18:34:13.964Z,35.45
2022-10-13T18:36:47.509Z,40.88
2022-10-13T18:39:27.061Z,38.22
2022-10-13T18:41:57.228Z,37.20
2022-10-13T18:44:35.074Z,37.05
2022-10-13T18:47:03.371Z,37.03
2022-10-13T18:49:31.414Z,42.67
2022-10-13T18:52:01.360Z,48.33
2022-10-13T18:54:30.418Z,61.53
2022-10-13T18:56:58.625Z,51.70
2022-10-13T18:59:26.855Z,58.42
2022-10-13T19:01:54.643Z,45.05
2022-10-13T19:04:22.709Z,45.90
2022-10-13T19:06:51.869Z,60.70
2022-10-13T19:09:21.832Z,88.43
2022-10-13T19:11:55.477Z,73.40
2022-10-13T19:14:27.787Z,60.45
2022-10-13T19:17:02.012Z,56.03
2022-10-13T19:19:30.970Z,65.90
2022-10-13T19:22:01.377Z,66.43
2022-10-13T19:24:29.526Z,54.83
2022-10-13T19:26:57.538Z,57.08
2022-10-13T19:29:25.738Z,64.80
2022-10-13T19:31:53.585Z,72.28
2022-10-13T19:34:22.122Z,88.68
2022-10-13T19:36:50.323Z,95.95
2022-10-13T19:39:24.199Z,137.02
2022-10-13T19:41:54.462Z,92.03
2022-10-13T19:44:23.923Z,97.63
2022-10-13T19:46:55.244Z,83.47
2022-10-13T19:49:26.506Z,92.97
2022-10-13T19:51:57.940Z,68.20
2022-10-13T19:54:29.008Z,77.25
2022-10-13T19:56:59.694Z,59.92
2022-10-13T19:59:28.325Z,66.53
2022-10-13T20:01:56.973Z,58.17
2022-10-13T20:04:25.177Z,54.78
2022-10-13T20:06:53.013Z,55.97
2022-10-13T20:09:21.903Z,45.15
2022-10-13T20:11:51.804Z,45.65
2022-10-13T20:14:20.201Z,41.45
2022-10-13T20:16:49.061Z,46.03
2022-10-13T20:19:19.675Z,44.55
2022-10-13T20:21:51.926Z,43.65
2022-10-13T20:24:21.841Z,41.40
2022-10-13T20:26:50.463Z,42.63
2022-10-13T20:29:23.366Z,44.90
2022-10-13T20:31:51.725Z,35.38
2022-10-13T20:34:19.688Z,40.53
2022-10-13T20:36:51.228Z,37.28
2022-10-13T20:39:20.248Z,38.08
2022-10-13T20:41:48.048Z,33.75
2022-10-13T20:44:15.803Z,35.65
2022-10-13T20:46:43.850Z,34.55
2022-10-13T20:49:12.924Z,33.63
2022-10-13T20:51:42.976Z,33.65
2022-10-13T20:54:13.844Z,27.65
2022-10-13T20:56:42.163Z,30.67
2022-10-13T20:59:12.291Z,30.70
2022-10-13T21:01:40.719Z,28.73
2022-10-13T21:04:09.582Z,26.17
2022-10-13T21:06:37.795Z,29.67
2022-10-13T21:09:06.525Z,35.28
2022-10-13T21:11:35.521Z,43.45
2022-10-13T21:14:07.075Z,34.50
2022-10-13T21:16:37.708Z,30.45
2022-10-13T21:19:10.295Z,27.70
2022-10-13T21:21:38.542Z,24.80
2022-10-13T21:24:08.276Z,31.45
2022-10-13T21:26:36.810Z,31.15
2022-10-13T21:29:05.831Z,26.33
2022-10-13T21:31:35.878Z,26.73
2022-10-13T21:34:04.251Z,25.90
2022-10-13T21:36:33.843Z,24.17
2022-10-13T21:39:06.126Z,23.77
2022-10-13T21:41:34.468Z,24.30
2022-10-13T21:44:02.872Z,23.48
2022-10-13T21:46:34.528Z,23.15
2022-10-13T21:49:05.883Z,22.88
2022-10-13T21:51:40.612Z,19.70
2022-10-13T21:54:13.726Z,22.35
2022-10-13T21:56:42.534Z,23.40
2022-10-13T21:59:13.087Z,20.77
2022-10-13T22:01:41.995Z,22.27
2022-10-13T22:04:14.216Z,25.67
2022-10-13T22:06:42.395Z,16.92
2022-10-13T22:09:10.821Z,21.52
2022-10-13T22:11:40.132Z,23.23
2022-10-13T22:14:12.285Z,18.20
2022-10-13T22:16:46.151Z,21.38
2022-10-13T22:19:15.012Z,21.33
2022-10-13T22:21:45.706Z,19.92
2022-10-13T22:24:15.936Z,14.43
2022-10-13T22:26:45.506Z,21.92
2022-10-13T22:29:16.292Z,23.23
2022-10-13T22:31:44.174Z,21.88
2022-10-13T22:34:14.115Z,26.27
2022-10-13T22:36:45.061Z,22.20
2022-10-13T22:39:15.086Z,22.00
2022-10-13T22:41:43.094Z,20.08
2022-10-13T22:44:10.903Z,23.00
2022-10-13T22:46:39.957Z,21.13
2022-10-13T22:49:13.523Z,26.15
2022-10-13T22:51:41.788Z,21.83
2022-10-13T22:54:09.857Z,24.65
2022-10-13T22:56:37.703Z,20.58
2022-10-13T22:59:07.735Z,24.70
2022-10-13T23:01:35.721Z,21.83
2022-10-13T23:04:03.902Z,22.80
2022-10-13T23:06:34.843Z,24.60
2022-10-13T23:11:36.537Z,20.80
2022-10-13T23:14:06.939Z,17.77
2022-10-13T23:16:35.062Z,24.35
2022-10-13T23:19:03.978Z,20.65
2022-10-13T23:21:31.856Z,20.20
2022-10-13T23:24:02.729Z,25.23
2022-10-13T23:26:32.252Z,19.92
2022-10-13T23:29:00.831Z,20.38
2022-10-13T23:31:29.395Z,20.35
2022-10-13T23:33:58.942Z,19.90
2022-10-13T23:36:29.563Z,20.27
2022-10-13T23:41:27.211Z,19.60
2022-10-13T23:43:55.338Z,20.58
2022-10-13T23:46:23.523Z,17.27
2022-10-13T23:48:51.750Z,21.42
2022-10-13T23:51:23.386Z,20.65
2022-10-13T23:53:52.416Z,20.23
2022-10-13T23:56:21.141Z,23.08
2022-10-13T23:58:49.254Z,19.60
